sensor_id;sensor_type;location;lat;lon;timestamp;P1;durP1;ratioP1;P2;durP2;ratioP2
21894;SDS011;11112;51.270;7.224;2023-03-23T00:02:25;6.75;;;2.60;;
21894;SDS011;11112;51.270;7.224;2023-03-23T00:05:52;5.63;;;2.30;;
21894;SDS011;11112;51.270;7.224;2023-03-23T00:15:45;4.45;;;2.28;;
21894;SDS011;11112;51.270;7.224;2023-03-23T00:18:13;3.33;;;1.90;;
21894;SDS011;11112;51.270;7.224;2023-03-23T00:20:46;5.68;;;2.00;;
21894;SDS011;11112;51.270;7.224;2023-03-23T00:23:15;6.00;;;1.95;;
21894;SDS011;11112;51.270;7.224;2023-03-23T00:25:45;3.92;;;1.98;;
21894;SDS011;11112;51.270;7.224;2023-03-23T00:28:13;3.75;;;1.98;;
21894;SDS011;11112;51.270;7.224;2023-03-23T00:30:42;5.65;;;2.10;;
21894;SDS011;11112;51.270;7.224;2023-03-23T00:33:11;4.82;;;2.25;;
21894;SDS011;11112;51.270;7.224;2023-03-23T00:35:38;5.97;;;2.22;;
21894;SDS011;11112;51.270;7.224;2023-03-23T00:38:09;5.10;;;2.00;;
21894;SDS011;11112;51.270;7.224;2023-03-23T00:40:36;3.70;;;2.00;;
21894;SDS011;11112;51.270;7.224;2023-03-23T00:43:03;4.10;;;1.80;;
21894;SDS011;11112;51.270;7.224;2023-03-23T00:45:30;4.75;;;2.28;;
21894;SDS011;11112;51.270;7.224;2023-03-23T00:47:59;4.57;;;1.90;;
21894;SDS011;11112;51.270;7.224;2023-03-23T00:50:30;4.32;;;1.73;;
21894;SDS011;11112;51.270;7.224;2023-03-23T00:52:57;4.22;;;1.88;;
21894;SDS011;11112;51.270;7.224;2023-03-23T00:55:25;3.42;;;1.77;;
21894;SDS011;11112;51.270;7.224;2023-03-23T00:57:52;3.65;;;1.98;;
21894;SDS011;11112;51.270;7.224;2023-03-23T01:00:19;5.05;;;1.80;;
21894;SDS011;11112;51.270;7.224;2023-03-23T01:02:47;3.88;;;1.80;;
21894;SDS011;11112;51.270;7.224;2023-03-23T01:05:16;4.10;;;1.80;;
21894;SDS011;11112;51.270;7.224;2023-03-23T01:07:45;2.85;;;1.73;;
21894;SDS011;11112;51.270;7.224;2023-03-23T01:10:14;2.97;;;1.58;;
21894;SDS011;11112;51.270;7.224;2023-03-23T01:12:43;3.85;;;2.05;;
21894;SDS011;11112;51.270;7.224;2023-03-23T01:15:14;2.78;;;1.40;;
21894;SDS011;11112;51.270;7.224;2023-03-23T01:17:42;2.88;;;1.42;;
21894;SDS011;11112;51.270;7.224;2023-03-23T01:20:10;3.63;;;1.75;;
21894;SDS011;11112;51.270;7.224;2023-03-23T01:22:39;4.25;;;1.65;;
21894;SDS011;11112;51.270;7.224;2023-03-23T01:25:10;4.55;;;1.95;;
21894;SDS011;11112;51.270;7.224;2023-03-23T01:27:39;3.67;;;1.80;;
21894;SDS011;11112;51.270;7.224;2023-03-23T01:30:07;2.78;;;1.70;;
21894;SDS011;11112;51.270;7.224;2023-03-23T01:32:38;3.67;;;1.70;;
21894;SDS011;11112;51.270;7.224;2023-03-23T01:35:05;4.75;;;1.67;;
21894;SDS011;11112;51.270;7.224;2023-03-23T01:37:33;4.75;;;1.60;;
21894;SDS011;11112;51.270;7.224;2023-03-23T01:40:01;3.05;;;1.60;;
21894;SDS011;11112;51.270;7.224;2023-03-23T01:42:32;3.63;;;1.60;;
21894;SDS011;11112;51.270;7.224;2023-03-23T01:50:28;3.08;;;1.75;;
21894;SDS011;11112;51.270;7.224;2023-03-23T01:52:56;2.75;;;1.55;;
21894;SDS011;11112;51.270;7.224;2023-03-23T01:55:26;3.03;;;1.60;;
21894;SDS011;11112;51.270;7.224;2023-03-23T01:57:55;4.25;;;1.60;;
21894;SDS011;11112;51.270;7.224;2023-03-23T02:00:23;4.25;;;1.70;;
21894;SDS011;11112;51.270;7.224;2023-03-23T02:02:51;3.80;;;1.50;;
21894;SDS011;11112;51.270;7.224;2023-03-23T02:05:22;3.38;;;1.63;;
21894;SDS011;11112;51.270;7.224;2023-03-23T02:07:56;3.55;;;1.75;;
21894;SDS011;11112;51.270;7.224;2023-03-23T02:10:27;3.63;;;1.80;;
21894;SDS011;11112;51.270;7.224;2023-03-23T02:12:58;4.80;;;1.70;;
21894;SDS011;11112;51.270;7.224;2023-03-23T02:15:28;5.53;;;1.90;;
21894;SDS011;11112;51.270;7.224;2023-03-23T02:18:05;3.75;;;1.80;;
21894;SDS011;11112;51.270;7.224;2023-03-23T02:20:55;4.65;;;1.75;;
21894;SDS011;11112;51.270;7.224;2023-03-23T02:27:36;5.10;;;1.90;;
21894;SDS011;11112;51.270;7.224;2023-03-23T02:33:43;4.57;;;2.03;;
21894;SDS011;11112;51.270;7.224;2023-03-23T02:36:19;4.07;;;2.15;;
21894;SDS011;11112;51.270;7.224;2023-03-23T02:38:53;5.10;;;2.10;;
21894;SDS011;11112;51.270;7.224;2023-03-23T02:41:28;4.57;;;1.80;;
21894;SDS011;11112;51.270;7.224;2023-03-23T02:43:58;4.25;;;2.03;;
21894;SDS011;11112;51.270;7.224;2023-03-23T02:46:28;4.95;;;2.25;;
21894;SDS011;11112;51.270;7.224;2023-03-23T02:48:58;3.97;;;2.20;;
21894;SDS011;11112;51.270;7.224;2023-03-23T02:51:26;5.20;;;2.00;;
21894;SDS011;11112;51.270;7.224;2023-03-23T02:53:54;4.32;;;1.88;;
21894;SDS011;11112;51.270;7.224;2023-03-23T02:56:24;4.70;;;1.95;;
21894;SDS011;11112;51.270;7.224;2023-03-23T02:58:53;4.18;;;1.80;;
21894;SDS011;11112;51.270;7.224;2023-03-23T03:04:19;4.13;;;1.83;;
21894;SDS011;11112;51.270;7.224;2023-03-23T03:06:51;3.22;;;1.80;;
21894;SDS011;11112;51.270;7.224;2023-03-23T03:09:58;3.00;;;1.75;;
21894;SDS011;11112;51.270;7.224;2023-03-23T03:12:31;5.03;;;2.10;;
21894;SDS011;11112;51.270;7.224;2023-03-23T03:15:10;4.95;;;1.98;;
21894;SDS011;11112;51.270;7.224;2023-03-23T03:17:48;4.10;;;2.05;;
21894;SDS011;11112;51.270;7.224;2023-03-23T03:20:25;2.83;;;1.70;;
21894;SDS011;11112;51.270;7.224;2023-03-23T03:22:54;3.97;;;1.80;;
21894;SDS011;11112;51.270;7.224;2023-03-23T03:25:23;5.75;;;2.15;;
21894;SDS011;11112;51.270;7.224;2023-03-23T03:27:52;4.15;;;1.90;;
21894;SDS011;11112;51.270;7.224;2023-03-23T03:30:22;3.10;;;1.88;;
21894;SDS011;11112;51.270;7.224;2023-03-23T03:32:55;4.72;;;1.85;;
21894;SDS011;11112;51.270;7.224;2023-03-23T03:35:26;4.25;;;2.15;;
21894;SDS011;11112;51.270;7.224;2023-03-23T03:37:54;3.67;;;1.65;;
21894;SDS011;11112;51.270;7.224;2023-03-23T03:40:22;2.95;;;1.70;;
21894;SDS011;11112;51.270;7.224;2023-03-23T03:42:50;5.43;;;1.80;;
21894;SDS011;11112;51.270;7.224;2023-03-23T03:45:17;4.78;;;1.60;;
21894;SDS011;11112;51.270;7.224;2023-03-23T03:47:46;3.40;;;1.65;;
21894;SDS011;11112;51.270;7.224;2023-03-23T03:50:13;3.38;;;1.60;;
21894;SDS011;11112;51.270;7.224;2023-03-23T03:52:43;3.78;;;1.63;;
21894;SDS011;11112;51.270;7.224;2023-03-23T03:55:10;3.88;;;1.38;;
21894;SDS011;11112;51.270;7.224;2023-03-23T03:57:37;2.75;;;1.60;;
21894;SDS011;11112;51.270;7.224;2023-03-23T04:00:06;2.65;;;1.40;;
21894;SDS011;11112;51.270;7.224;2023-03-23T04:02:40;3.28;;;1.70;;
21894;SDS011;11112;51.270;7.224;2023-03-23T04:05:08;2.85;;;1.55;;
21894;SDS011;11112;51.270;7.224;2023-03-23T04:07:36;3.63;;;1.60;;
21894;SDS011;11112;51.270;7.224;2023-03-23T04:10:06;2.97;;;1.65;;
21894;SDS011;11112;51.270;7.224;2023-03-23T04:12:36;3.03;;;1.40;;
21894;SDS011;11112;51.270;7.224;2023-03-23T04:15:03;3.08;;;1.60;;
21894;SDS011;11112;51.270;7.224;2023-03-23T04:17:32;2.80;;;1.38;;
21894;SDS011;11112;51.270;7.224;2023-03-23T04:20:00;3.25;;;1.50;;
21894;SDS011;11112;51.270;7.224;2023-03-23T04:22:32;2.20;;;1.25;;
21894;SDS011;11112;51.270;7.224;2023-03-23T04:25:00;4.50;;;1.60;;
21894;SDS011;11112;51.270;7.224;2023-03-23T04:27:32;2.67;;;1.50;;
21894;SDS011;11112;51.270;7.224;2023-03-23T04:29:59;4.00;;;1.33;;
21894;SDS011;11112;51.270;7.224;2023-03-23T04:32:28;2.80;;;1.30;;
21894;SDS011;11112;51.270;7.224;2023-03-23T04:34:55;3.08;;;1.30;;
21894;SDS011;11112;51.270;7.224;2023-03-23T04:37:24;2.45;;;1.40;;
21894;SDS011;11112;51.270;7.224;2023-03-23T04:39:54;2.88;;;1.40;;
21894;SDS011;11112;51.270;7.224;2023-03-23T04:42:26;2.95;;;1.50;;
21894;SDS011;11112;51.270;7.224;2023-03-23T04:44:56;2.28;;;1.02;;
21894;SDS011;11112;51.270;7.224;2023-03-23T04:47:26;2.40;;;1.40;;
21894;SDS011;11112;51.270;7.224;2023-03-23T04:49:55;1.98;;;1.20;;
21894;SDS011;11112;51.270;7.224;2023-03-23T04:52:22;2.28;;;1.20;;
21894;SDS011;11112;51.270;7.224;2023-03-23T04:54:50;3.05;;;1.15;;
21894;SDS011;11112;51.270;7.224;2023-03-23T04:57:18;2.40;;;1.40;;
21894;SDS011;11112;51.270;7.224;2023-03-23T04:59:45;2.72;;;1.38;;
21894;SDS011;11112;51.270;7.224;2023-03-23T05:02:14;2.75;;;1.38;;
21894;SDS011;11112;51.270;7.224;2023-03-23T05:04:42;2.47;;;1.30;;
21894;SDS011;11112;51.270;7.224;2023-03-23T05:07:10;4.20;;;1.40;;
21894;SDS011;11112;51.270;7.224;2023-03-23T05:09:37;3.92;;;2.03;;
21894;SDS011;11112;51.270;7.224;2023-03-23T05:12:05;2.08;;;1.58;;
21894;SDS011;11112;51.270;7.224;2023-03-23T05:14:35;3.97;;;1.70;;
21894;SDS011;11112;51.270;7.224;2023-03-23T05:17:07;3.45;;;1.50;;
21894;SDS011;11112;51.270;7.224;2023-03-23T05:19:36;3.28;;;1.60;;
21894;SDS011;11112;51.270;7.224;2023-03-23T05:22:03;3.00;;;1.50;;
21894;SDS011;11112;51.270;7.224;2023-03-23T05:24:30;2.63;;;1.48;;
21894;SDS011;11112;51.270;7.224;2023-03-23T05:26:58;2.17;;;1.40;;
21894;SDS011;11112;51.270;7.224;2023-03-23T05:29:25;2.35;;;1.40;;
21894;SDS011;11112;51.270;7.224;2023-03-23T05:31:55;2.92;;;1.50;;
21894;SDS011;11112;51.270;7.224;2023-03-23T05:34:24;2.08;;;1.35;;
21894;SDS011;11112;51.270;7.224;2023-03-23T05:36:55;2.67;;;1.70;;
21894;SDS011;11112;51.270;7.224;2023-03-23T05:39:22;3.05;;;1.70;;
21894;SDS011;11112;51.270;7.224;2023-03-23T05:41:49;3.20;;;1.70;;
21894;SDS011;11112;51.270;7.224;2023-03-23T05:44:17;2.55;;;1.40;;
21894;SDS011;11112;51.270;7.224;2023-03-23T05:46:45;3.78;;;1.60;;
21894;SDS011;11112;51.270;7.224;2023-03-23T05:49:12;4.30;;;1.80;;
21894;SDS011;11112;51.270;7.224;2023-03-23T05:51:41;2.70;;;1.50;;
21894;SDS011;11112;51.270;7.224;2023-03-23T05:54:10;2.72;;;1.52;;
21894;SDS011;11112;51.270;7.224;2023-03-23T05:56:38;3.90;;;1.70;;
21894;SDS011;11112;51.270;7.224;2023-03-23T05:59:05;3.33;;;1.77;;
21894;SDS011;11112;51.270;7.224;2023-03-23T06:01:33;3.85;;;1.83;;
21894;SDS011;11112;51.270;7.224;2023-03-23T06:04:00;3.33;;;1.80;;
21894;SDS011;11112;51.270;7.224;2023-03-23T06:06:28;2.92;;;1.90;;
21894;SDS011;11112;51.270;7.224;2023-03-23T06:08:56;3.13;;;1.85;;
21894;SDS011;11112;51.270;7.224;2023-03-23T06:11:26;3.53;;;1.73;;
21894;SDS011;11112;51.270;7.224;2023-03-23T06:13:53;2.83;;;1.75;;
21894;SDS011;11112;51.270;7.224;2023-03-23T06:16:20;4.15;;;1.65;;
21894;SDS011;11112;51.270;7.224;2023-03-23T06:18:48;6.65;;;1.60;;
21894;SDS011;11112;51.270;7.224;2023-03-23T06:21:15;2.90;;;1.88;;
21894;SDS011;11112;51.270;7.224;2023-03-23T06:23:44;2.95;;;1.60;;
21894;SDS011;11112;51.270;7.224;2023-03-23T06:26:12;3.13;;;1.95;;
21894;SDS011;11112;51.270;7.224;2023-03-23T06:28:42;2.53;;;1.83;;
21894;SDS011;11112;51.270;7.224;2023-03-23T06:31:10;3.05;;;1.90;;
21894;SDS011;11112;51.270;7.224;2023-03-23T06:33:38;3.72;;;2.05;;
21894;SDS011;11112;51.270;7.224;2023-03-23T06:36:06;4.80;;;1.65;;
21894;SDS011;11112;51.270;7.224;2023-03-23T06:38:36;3.78;;;1.75;;
21894;SDS011;11112;51.270;7.224;2023-03-23T06:41:03;4.28;;;2.03;;
21894;SDS011;11112;51.270;7.224;2023-03-23T06:43:32;3.05;;;1.95;;
21894;SDS011;11112;51.270;7.224;2023-03-23T06:46:02;3.30;;;2.10;;
21894;SDS011;11112;51.270;7.224;2023-03-23T06:48:29;5.38;;;2.03;;
21894;SDS011;11112;51.270;7.224;2023-03-23T06:50:57;4.25;;;1.80;;
21894;SDS011;11112;51.270;7.224;2023-03-23T06:53:24;4.68;;;2.20;;
21894;SDS011;11112;51.270;7.224;2023-03-23T06:55:51;3.83;;;1.92;;
21894;SDS011;11112;51.270;7.224;2023-03-23T06:58:18;4.97;;;1.80;;
21894;SDS011;11112;51.270;7.224;2023-03-23T07:00:47;4.38;;;2.05;;
21894;SDS011;11112;51.270;7.224;2023-03-23T07:03:15;5.15;;;1.90;;
21894;SDS011;11112;51.270;7.224;2023-03-23T07:05:45;5.28;;;2.22;;
21894;SDS011;11112;51.270;7.224;2023-03-23T07:08:13;6.65;;;2.10;;
21894;SDS011;11112;51.270;7.224;2023-03-23T07:10:40;4.50;;;2.13;;
21894;SDS011;11112;51.270;7.224;2023-03-23T07:13:07;5.63;;;2.10;;
21894;SDS011;11112;51.270;7.224;2023-03-23T07:15:34;5.28;;;2.20;;
21894;SDS011;11112;51.270;7.224;2023-03-23T07:18:02;5.10;;;2.63;;
21894;SDS011;11112;51.270;7.224;2023-03-23T07:20:30;4.68;;;2.40;;
21894;SDS011;11112;51.270;7.224;2023-03-23T07:22:58;4.72;;;2.03;;
21894;SDS011;11112;51.270;7.224;2023-03-23T07:25:26;4.20;;;1.80;;
21894;SDS011;11112;51.270;7.224;2023-03-23T07:27:53;7.85;;;1.92;;
21894;SDS011;11112;51.270;7.224;2023-03-23T07:30:21;5.82;;;2.10;;
21894;SDS011;11112;51.270;7.224;2023-03-23T07:32:48;4.88;;;2.00;;
21894;SDS011;11112;51.270;7.224;2023-03-23T07:35:15;5.15;;;2.15;;
21894;SDS011;11112;51.270;7.224;2023-03-23T07:37:44;7.60;;;2.03;;
21894;SDS011;11112;51.270;7.224;2023-03-23T07:40:14;4.85;;;2.10;;
21894;SDS011;11112;51.270;7.224;2023-03-23T07:45:10;4.47;;;1.80;;
21894;SDS011;11112;51.270;7.224;2023-03-23T07:47:38;5.28;;;1.48;;
21894;SDS011;11112;51.270;7.224;2023-03-23T07:50:07;4.18;;;1.70;;
21894;SDS011;11112;51.270;7.224;2023-03-23T07:52:39;5.28;;;2.00;;
21894;SDS011;11112;51.270;7.224;2023-03-23T07:55:11;8.55;;;2.10;;
21894;SDS011;11112;51.270;7.224;2023-03-23T07:57:42;5.38;;;1.80;;
21894;SDS011;11112;51.270;7.224;2023-03-23T08:00:11;5.72;;;2.35;;
21894;SDS011;11112;51.270;7.224;2023-03-23T08:02:43;6.63;;;2.10;;
21894;SDS011;11112;51.270;7.224;2023-03-23T08:05:11;5.70;;;2.20;;
21894;SDS011;11112;51.270;7.224;2023-03-23T08:07:39;6.85;;;2.30;;
21894;SDS011;11112;51.270;7.224;2023-03-23T08:10:10;5.10;;;2.40;;
21894;SDS011;11112;51.270;7.224;2023-03-23T08:12:40;5.63;;;2.00;;
21894;SDS011;11112;51.270;7.224;2023-03-23T08:15:09;5.53;;;2.10;;
21894;SDS011;11112;51.270;7.224;2023-03-23T08:17:39;6.53;;;2.00;;
21894;SDS011;11112;51.270;7.224;2023-03-23T08:20:08;6.15;;;2.10;;
21894;SDS011;11112;51.270;7.224;2023-03-23T08:22:38;4.70;;;2.05;;
21894;SDS011;11112;51.270;7.224;2023-03-23T08:25:10;4.97;;;2.05;;
21894;SDS011;11112;51.270;7.224;2023-03-23T08:27:42;8.73;;;2.00;;
21894;SDS011;11112;51.270;7.224;2023-03-23T08:30:10;4.40;;;1.90;;
21894;SDS011;11112;51.270;7.224;2023-03-23T08:32:40;6.00;;;1.90;;
21894;SDS011;11112;51.270;7.224;2023-03-23T08:35:08;4.88;;;1.63;;
21894;SDS011;11112;51.270;7.224;2023-03-23T08:37:37;4.60;;;1.52;;
21894;SDS011;11112;51.270;7.224;2023-03-23T08:40:07;4.78;;;1.60;;
21894;SDS011;11112;51.270;7.224;2023-03-23T08:42:39;4.18;;;1.50;;
21894;SDS011;11112;51.270;7.224;2023-03-23T08:45:09;4.38;;;1.48;;
21894;SDS011;11112;51.270;7.224;2023-03-23T08:47:40;3.67;;;1.10;;
21894;SDS011;11112;51.270;7.224;2023-03-23T08:50:08;5.68;;;2.05;;
21894;SDS011;11112;51.270;7.224;2023-03-23T08:52:38;7.07;;;2.10;;
21894;SDS011;11112;51.270;7.224;2023-03-23T08:55:06;5.85;;;1.85;;
21894;SDS011;11112;51.270;7.224;2023-03-23T08:57:36;5.30;;;1.70;;
21894;SDS011;11112;51.270;7.224;2023-03-23T09:00:06;5.82;;;1.70;;
21894;SDS011;11112;51.270;7.224;2023-03-23T09:02:40;6.07;;;1.60;;
21894;SDS011;11112;51.270;7.224;2023-03-23T09:05:08;4.43;;;1.52;;
21894;SDS011;11112;51.270;7.224;2023-03-23T09:07:37;5.85;;;1.45;;
21894;SDS011;11112;51.270;7.224;2023-03-23T09:10:06;4.10;;;1.33;;
21894;SDS011;11112;51.270;7.224;2023-03-23T09:12:36;4.75;;;1.40;;
21894;SDS011;11112;51.270;7.224;2023-03-23T09:15:04;5.38;;;1.65;;
21894;SDS011;11112;51.270;7.224;2023-03-23T09:17:34;5.68;;;1.67;;
21894;SDS011;11112;51.270;7.224;2023-03-23T09:20:03;4.75;;;1.27;;
21894;SDS011;11112;51.270;7.224;2023-03-23T09:22:35;7.07;;;1.67;;
21894;SDS011;11112;51.270;7.224;2023-03-23T09:25:03;6.00;;;1.60;;
21894;SDS011;11112;51.270;7.224;2023-03-23T09:27:32;5.47;;;1.58;;
21894;SDS011;11112;51.270;7.224;2023-03-23T09:30:03;9.35;;;2.00;;
21894;SDS011;11112;51.270;7.224;2023-03-23T09:32:32;6.68;;;1.50;;
21894;SDS011;11112;51.270;7.224;2023-03-23T09:35:00;6.55;;;1.80;;
21894;SDS011;11112;51.270;7.224;2023-03-23T09:37:28;7.28;;;1.75;;
21894;SDS011;11112;51.270;7.224;2023-03-23T09:39:55;7.85;;;1.80;;
21894;SDS011;11112;51.270;7.224;2023-03-23T09:42:28;6.68;;;1.70;;
21894;SDS011;11112;51.270;7.224;2023-03-23T09:45:09;5.70;;;1.60;;
21894;SDS011;11112;51.270;7.224;2023-03-23T09:47:56;8.02;;;1.80;;
21894;SDS011;11112;51.270;7.224;2023-03-23T09:50:57;8.88;;;1.63;;
21894;SDS011;11112;51.270;7.224;2023-03-23T09:53:34;6.30;;;1.40;;
21894;SDS011;11112;51.270;7.224;2023-03-23T09:56:09;8.15;;;1.80;;
21894;SDS011;11112;51.270;7.224;2023-03-23T09:58:43;7.00;;;1.65;;
21894;SDS011;11112;51.270;7.224;2023-03-23T10:01:17;5.13;;;1.45;;
21894;SDS011;11112;51.270;7.224;2023-03-23T10:03:51;7.20;;;1.45;;
21894;SDS011;11112;51.270;7.224;2023-03-23T10:06:25;5.70;;;1.33;;
21894;SDS011;11112;51.270;7.224;2023-03-23T10:08:53;7.75;;;1.63;;
21894;SDS011;11112;51.270;7.224;2023-03-23T10:11:27;7.05;;;1.50;;
21894;SDS011;11112;51.270;7.224;2023-03-23T10:14:06;7.43;;;1.63;;
21894;SDS011;11112;51.270;7.224;2023-03-23T10:16:59;9.05;;;2.05;;
21894;SDS011;11112;51.270;7.224;2023-03-23T10:19:34;11.55;;;2.10;;
21894;SDS011;11112;51.270;7.224;2023-03-23T10:22:08;9.73;;;1.95;;
21894;SDS011;11112;51.270;7.224;2023-03-23T10:24:40;7.72;;;2.03;;
21894;SDS011;11112;51.270;7.224;2023-03-23T10:27:15;6.78;;;1.88;;
21894;SDS011;11112;51.270;7.224;2023-03-23T10:29:48;7.18;;;1.90;;
21894;SDS011;11112;51.270;7.224;2023-03-23T10:32:34;5.97;;;2.00;;
21894;SDS011;11112;51.270;7.224;2023-03-23T10:35:10;6.00;;;1.75;;
21894;SDS011;11112;51.270;7.224;2023-03-23T10:37:44;8.75;;;1.70;;
21894;SDS011;11112;51.270;7.224;2023-03-23T10:40:16;6.35;;;1.73;;
21894;SDS011;11112;51.270;7.224;2023-03-23T10:42:46;4.15;;;1.50;;
21894;SDS011;11112;51.270;7.224;2023-03-23T10:45:16;3.85;;;1.20;;
21894;SDS011;11112;51.270;7.224;2023-03-23T10:47:49;7.07;;;1.58;;
21894;SDS011;11112;51.270;7.224;2023-03-23T10:50:22;3.72;;;1.10;;
21894;SDS011;11112;51.270;7.224;2023-03-23T10:52:54;3.67;;;1.48;;
21894;SDS011;11112;51.270;7.224;2023-03-23T10:55:25;5.57;;;1.27;;
21894;SDS011;11112;51.270;7.224;2023-03-23T10:58:04;4.07;;;0.90;;
21894;SDS011;11112;51.270;7.224;2023-03-23T11:00:39;3.58;;;1.10;;
21894;SDS011;11112;51.270;7.224;2023-03-23T11:06:09;2.50;;;1.02;;
21894;SDS011;11112;51.270;7.224;2023-03-23T11:08:46;3.47;;;1.00;;
21894;SDS011;11112;51.270;7.224;2023-03-23T11:11:18;2.58;;;0.80;;
21894;SDS011;11112;51.270;7.224;2023-03-23T11:13:48;2.75;;;1.00;;
21894;SDS011;11112;51.270;7.224;2023-03-23T11:16:24;2.72;;;0.88;;
21894;SDS011;11112;51.270;7.224;2023-03-23T11:18:57;3.42;;;0.93;;
21894;SDS011;11112;51.270;7.224;2023-03-23T11:21:26;2.63;;;0.73;;
21894;SDS011;11112;51.270;7.224;2023-03-23T11:23:55;3.10;;;0.73;;
21894;SDS011;11112;51.270;7.224;2023-03-23T11:26:26;2.35;;;0.70;;
21894;SDS011;11112;51.270;7.224;2023-03-23T11:28:57;4.50;;;0.80;;
21894;SDS011;11112;51.270;7.224;2023-03-23T11:31:32;4.70;;;1.00;;
21894;SDS011;11112;51.270;7.224;2023-03-23T11:34:03;3.50;;;1.00;;
21894;SDS011;11112;51.270;7.224;2023-03-23T11:36:37;2.15;;;1.17;;
21894;SDS011;11112;51.270;7.224;2023-03-23T11:39:19;1.52;;;0.70;;
21894;SDS011;11112;51.270;7.224;2023-03-23T11:41:52;3.97;;;1.35;;
21894;SDS011;11112;51.270;7.224;2023-03-23T11:44:32;2.75;;;1.42;;
21894;SDS011;11112;51.270;7.224;2023-03-23T11:47:08;3.65;;;1.50;;
21894;SDS011;11112;51.270;7.224;2023-03-23T11:49:50;4.57;;;1.55;;
21894;SDS011;11112;51.270;7.224;2023-03-23T11:52:23;2.55;;;1.30;;
21894;SDS011;11112;51.270;7.224;2023-03-23T11:54:58;4.05;;;1.42;;
21894;SDS011;11112;51.270;7.224;2023-03-23T11:57:30;2.92;;;1.45;;
21894;SDS011;11112;51.270;7.224;2023-03-23T11:59:57;3.45;;;1.50;;
21894;SDS011;11112;51.270;7.224;2023-03-23T12:02:39;3.13;;;1.70;;
21894;SDS011;11112;51.270;7.224;2023-03-23T12:05:36;3.75;;;1.90;;
21894;SDS011;11112;51.270;7.224;2023-03-23T12:08:21;5.53;;;2.08;;
21894;SDS011;11112;51.270;7.224;2023-03-23T12:11:12;4.15;;;2.22;;
21894;SDS011;11112;51.270;7.224;2023-03-23T12:13:52;4.10;;;1.70;;
21894;SDS011;11112;51.270;7.224;2023-03-23T12:16:32;3.88;;;1.77;;
21894;SDS011;11112;51.270;7.224;2023-03-23T12:19:18;4.15;;;1.75;;
21894;SDS011;11112;51.270;7.224;2023-03-23T12:22:03;3.42;;;1.90;;
21894;SDS011;11112;51.270;7.224;2023-03-23T12:24:45;3.80;;;2.10;;
21894;SDS011;11112;51.270;7.224;2023-03-23T12:27:25;4.10;;;2.13;;
21894;SDS011;11112;51.270;7.224;2023-03-23T12:30:04;4.20;;;1.75;;
21894;SDS011;11112;51.270;7.224;2023-03-23T12:32:56;3.42;;;2.25;;
21894;SDS011;11112;51.270;7.224;2023-03-23T12:35:37;4.72;;;2.60;;
21894;SDS011;11112;51.270;7.224;2023-03-23T12:38:30;5.47;;;2.90;;
21894;SDS011;11112;51.270;7.224;2023-03-23T12:41:14;4.00;;;3.08;;
21894;SDS011;11112;51.270;7.224;2023-03-23T12:43:50;4.68;;;3.20;;
21894;SDS011;11112;51.270;7.224;2023-03-23T12:46:30;5.45;;;2.88;;
21894;SDS011;11112;51.270;7.224;2023-03-23T12:49:12;4.70;;;2.47;;
21894;SDS011;11112;51.270;7.224;2023-03-23T12:51:48;7.40;;;3.10;;
21894;SDS011;11112;51.270;7.224;2023-03-23T12:54:26;3.70;;;2.60;;
21894;SDS011;11112;51.270;7.224;2023-03-23T12:56:58;6.40;;;2.80;;
21894;SDS011;11112;51.270;7.224;2023-03-23T12:59:36;4.25;;;2.60;;
21894;SDS011;11112;51.270;7.224;2023-03-23T13:02:10;3.45;;;2.10;;
21894;SDS011;11112;51.270;7.224;2023-03-23T13:04:47;3.63;;;2.35;;
21894;SDS011;11112;51.270;7.224;2023-03-23T13:07:22;3.50;;;2.17;;
21894;SDS011;11112;51.270;7.224;2023-03-23T13:09:58;4.68;;;2.50;;
21894;SDS011;11112;51.270;7.224;2023-03-23T13:12:32;4.93;;;2.67;;
21894;SDS011;11112;51.270;7.224;2023-03-23T13:15:06;5.05;;;2.65;;
21894;SDS011;11112;51.270;7.224;2023-03-23T13:17:47;5.80;;;2.85;;
21894;SDS011;11112;51.270;7.224;2023-03-23T13:20:30;7.72;;;4.28;;
21894;SDS011;11112;51.270;7.224;2023-03-23T13:23:08;5.70;;;3.42;;
21894;SDS011;11112;51.270;7.224;2023-03-23T13:25:45;5.07;;;3.15;;
21894;SDS011;11112;51.270;7.224;2023-03-23T13:28:18;4.82;;;3.67;;
21894;SDS011;11112;51.270;7.224;2023-03-23T13:31:00;6.50;;;4.00;;
21894;SDS011;11112;51.270;7.224;2023-03-23T13:33:33;8.10;;;5.47;;
21894;SDS011;11112;51.270;7.224;2023-03-23T13:36:09;7.57;;;5.15;;
21894;SDS011;11112;51.270;7.224;2023-03-23T13:38:43;8.48;;;5.30;;
21894;SDS011;11112;51.270;7.224;2023-03-23T13:41:17;7.82;;;5.85;;
21894;SDS011;11112;51.270;7.224;2023-03-23T13:43:46;7.10;;;6.22;;
21894;SDS011;11112;51.270;7.224;2023-03-23T13:46:24;8.85;;;6.70;;
21894;SDS011;11112;51.270;7.224;2023-03-23T13:52:06;10.93;;;6.22;;
21894;SDS011;11112;51.270;7.224;2023-03-23T13:54:47;9.75;;;6.45;;
21894;SDS011;11112;51.270;7.224;2023-03-23T14:03:05;8.77;;;5.13;;
21894;SDS011;11112;51.270;7.224;2023-03-23T14:05:41;7.82;;;4.80;;
21894;SDS011;11112;51.270;7.224;2023-03-23T14:08:11;5.20;;;3.97;;
21894;SDS011;11112;51.270;7.224;2023-03-23T14:10:49;6.93;;;4.10;;
21894;SDS011;11112;51.270;7.224;2023-03-23T14:13:28;7.25;;;4.03;;
21894;SDS011;11112;51.270;7.224;2023-03-23T14:15:59;5.78;;;4.13;;
21894;SDS011;11112;51.270;7.224;2023-03-23T14:18:32;7.03;;;4.40;;
21894;SDS011;11112;51.270;7.224;2023-03-23T14:21:04;7.32;;;4.53;;
21894;SDS011;11112;51.270;7.224;2023-03-23T14:23:33;6.63;;;4.35;;
21894;SDS011;11112;51.270;7.224;2023-03-23T14:26:01;5.68;;;4.35;;
21894;SDS011;11112;51.270;7.224;2023-03-23T14:28:38;6.82;;;4.05;;
21894;SDS011;11112;51.270;7.224;2023-03-23T14:31:12;7.72;;;3.50;;
21894;SDS011;11112;51.270;7.224;2023-03-23T14:33:44;6.25;;;3.50;;
21894;SDS011;11112;51.270;7.224;2023-03-23T14:36:13;9.40;;;3.67;;
21894;SDS011;11112;51.270;7.224;2023-03-23T14:38:40;8.95;;;3.53;;
21894;SDS011;11112;51.270;7.224;2023-03-23T14:41:10;6.22;;;3.08;;
21894;SDS011;11112;51.270;7.224;2023-03-23T14:43:40;8.13;;;2.92;;
21894;SDS011;11112;51.270;7.224;2023-03-23T14:46:07;5.43;;;2.50;;
21894;SDS011;11112;51.270;7.224;2023-03-23T14:48:37;6.22;;;2.30;;
21894;SDS011;11112;51.270;7.224;2023-03-23T14:51:06;6.18;;;2.30;;
21894;SDS011;11112;51.270;7.224;2023-03-23T14:53:35;4.70;;;1.95;;
21894;SDS011;11112;51.270;7.224;2023-03-23T14:56:06;5.70;;;2.30;;
21894;SDS011;11112;51.270;7.224;2023-03-23T14:58:43;6.30;;;2.22;;
21894;SDS011;11112;51.270;7.224;2023-03-23T15:01:11;8.15;;;2.10;;
21894;SDS011;11112;51.270;7.224;2023-03-23T15:03:51;4.40;;;1.58;;
21894;SDS011;11112;51.270;7.224;2023-03-23T15:06:22;4.50;;;1.50;;
21894;SDS011;11112;51.270;7.224;2023-03-23T15:08:56;5.00;;;1.73;;
21894;SDS011;11112;51.270;7.224;2023-03-23T15:11:27;7.32;;;2.00;;
21894;SDS011;11112;51.270;7.224;2023-03-23T15:14:00;6.53;;;1.88;;
21894;SDS011;11112;51.270;7.224;2023-03-23T15:16:35;8.07;;;3.13;;
21894;SDS011;11112;51.270;7.224;2023-03-23T15:19:10;8.43;;;2.60;;
21894;SDS011;11112;51.270;7.224;2023-03-23T15:21:46;7.28;;;2.60;;
21894;SDS011;11112;51.270;7.224;2023-03-23T15:24:20;8.15;;;2.50;;
21894;SDS011;11112;51.270;7.224;2023-03-23T15:26:53;6.65;;;2.30;;
21894;SDS011;11112;51.270;7.224;2023-03-23T15:29:49;5.75;;;2.45;;
21894;SDS011;11112;51.270;7.224;2023-03-23T15:32:22;6.60;;;2.72;;
21894;SDS011;11112;51.270;7.224;2023-03-23T15:34:52;6.10;;;2.85;;
21894;SDS011;11112;51.270;7.224;2023-03-23T15:37:21;8.80;;;2.85;;
21894;SDS011;11112;51.270;7.224;2023-03-23T15:39:53;7.55;;;2.55;;
21894;SDS011;11112;51.270;7.224;2023-03-23T15:42:22;6.78;;;2.17;;
21894;SDS011;11112;51.270;7.224;2023-03-23T15:45:05;7.97;;;2.50;;
21894;SDS011;11112;51.270;7.224;2023-03-23T15:47:52;5.20;;;2.60;;
21894;SDS011;11112;51.270;7.224;2023-03-23T15:50:20;6.32;;;2.00;;
21894;SDS011;11112;51.270;7.224;2023-03-23T15:53:00;5.88;;;2.20;;
21894;SDS011;11112;51.270;7.224;2023-03-23T15:55:42;7.80;;;2.40;;